Gilze-Rijen, Netherlands

5:14 AM CET on February 12, 2016 (GMT +0100)
Tilburg, Reeshof-Dalem | | Change Station
CLOSE
Current Station
Personal Weather Station
Location: Tilburg, NOORD-BRABANT
Elevation: 23 ft
Nearby Weather Stations

Elev 23 ft 51.58 °N, 4.98 °E | Updated 3 minutes ago

Overcast
Overcast
35.4 °F
Feels Like 35 °F
N
0.0
Wind Variable Wind from North
Gusts 0.7 mph

Today
High -- | Low -- °F
--% Chance of Precip.
Yesterday
High -- | Low -- °F
Precip. -- in
Pressure 29.56 in
Visibility 5.0 miles
Clouds Overcast 3100 ft
Windchill 35 °F
Dew Point 32 °F
Humidity 87%
Rainfall 0.00 in
Snow Depth Not available.
8:01 AM 5:48 PM
Waxing Crescent, 17% visible
SPECI EHWO 120406Z AUTO 14004KT 8000 BR OVC031 03/02 Q1001 BLU
Pressure 29.56 in
Visibility 5.0 miles
Clouds Overcast 3100 ft
Windchill 35 °F
Dew Point 32 °F
Humidity 87%
Rainfall 0.00 in
Snow Depth Not available.
8:01 AM 5:48 PM
Waxing Crescent, 17% visible
SPECI EHWO 120406Z AUTO 14004KT 8000 BR OVC031 03/02 Q1001 BLU

10-Day Weather Forecast

Almanac

Astronomy

Feb. 12, 2016 Rise Set
Actual Time
Civil Twilight
Nautical Twilight
Astronomical Twilight
Moon
Length of Visible Light
Length of Day
Tomorrow will be .
, % of the Moon is Illuminated

Today's Extremes

Country Highs Country Lows

Community

WunderPhotos

Upload Photos

1,892,265 photos uploaded!

WunderBlog® & News

Nearby

Air Quality

  Air Quality AQ Index Pollutant
Not available.

Snow Depth

Station Depth Elevation

Earthquake Activity

City Distance Mag. Time & Date
Minimum magnitude displayed is 2.5.

Coastal Water Temperatures

Place Temperature

Stations

Nearby Weather Stations

Station Location Temp. Windchill Dew Point Humidity Wind Precip. Elev Updated Type